createdAt,value
2024-02-02T00:00:06.416Z,1.45
2024-02-02T00:02:38.665Z,1.63
2024-02-02T00:05:06.989Z,1.25
2024-02-02T00:07:35.081Z,1.92
2024-02-02T00:10:05.157Z,1.67
2024-02-02T00:12:32.948Z,1.50
2024-02-02T00:15:00.819Z,1.52
2024-02-02T00:17:28.633Z,1.77
2024-02-02T00:19:56.416Z,1.50
2024-02-02T00:22:25.901Z,1.27
2024-02-02T00:24:53.660Z,2.08
2024-02-02T00:27:23.186Z,1.90
2024-02-02T00:29:50.985Z,2.08
2024-02-02T00:32:18.730Z,1.98
2024-02-02T00:34:46.637Z,1.85
2024-02-02T00:37:14.608Z,1.83
2024-02-02T00:39:42.374Z,1.40
2024-02-02T00:42:10.187Z,1.15
2024-02-02T00:44:39.332Z,1.40
2024-02-02T00:47:07.325Z,1.98
2024-02-02T00:49:35.205Z,1.40
2024-02-02T00:52:03.017Z,2.42
2024-02-02T00:54:30.770Z,2.10
2024-02-02T00:56:58.684Z,1.15
2024-02-02T00:59:26.546Z,2.03
2024-02-02T01:01:55.641Z,2.10
2024-02-02T01:04:23.419Z,1.52
2024-02-02T01:06:51.248Z,2.28
2024-02-02T01:09:19.067Z,1.23
2024-02-02T01:11:46.867Z,1.75
2024-02-02T01:14:14.682Z,1.80
2024-02-02T01:16:42.426Z,1.70
2024-02-02T01:19:12.070Z,1.58
2024-02-02T01:21:40.012Z,2.03
2024-02-02T01:24:07.877Z,1.42
2024-02-02T01:26:36.952Z,2.25
2024-02-02T01:29:04.704Z,1.83
2024-02-02T01:31:32.780Z,1.60
2024-02-02T01:34:00.734Z,1.58
2024-02-02T01:36:29.966Z,1.35
2024-02-02T01:38:57.754Z,1.55
2024-02-02T01:41:25.503Z,2.10
2024-02-02T01:43:54.223Z,1.55
2024-02-02T01:46:22.043Z,1.50
2024-02-02T01:48:50.002Z,2.30
2024-02-02T01:51:17.799Z,1.65
2024-02-02T01:53:46.970Z,1.05
2024-02-02T01:56:15.387Z,1.63
2024-02-02T01:58:43.219Z,1.83
2024-02-02T02:01:11.519Z,1.40
2024-02-02T02:03:39.517Z,1.10
2024-02-02T02:06:07.598Z,1.52
2024-02-02T02:08:35.457Z,0.98
2024-02-02T02:11:04.688Z,1.60
2024-02-02T02:13:32.989Z,1.45
2024-02-02T02:16:00.752Z,1.33
2024-02-02T02:18:28.804Z,1.77
2024-02-02T02:20:56.864Z,1.58
2024-02-02T02:23:27.166Z,1.70
2024-02-02T02:25:54.909Z,1.10
2024-02-02T02:28:22.646Z,1.35
2024-02-02T02:30:50.378Z,1.33
2024-02-02T02:33:18.258Z,1.67
2024-02-02T02:35:46.061Z,1.00
2024-02-02T02:38:13.837Z,1.33
2024-02-02T02:40:42.973Z,1.38
2024-02-02T02:43:10.878Z,1.95
2024-02-02T02:45:39.044Z,1.65
2024-02-02T02:48:07.938Z,1.77
2024-02-02T02:50:36.706Z,1.38
2024-02-02T02:53:04.528Z,1.48
2024-02-02T02:55:32.307Z,1.60
2024-02-02T02:58:01.623Z,1.98
2024-02-02T03:00:30.588Z,1.38
2024-02-02T03:02:58.460Z,1.38
2024-02-02T03:05:26.269Z,1.45
2024-02-02T03:07:54.041Z,1.48
2024-02-02T03:10:22.545Z,1.30
2024-02-02T03:12:50.315Z,1.63
2024-02-02T03:15:19.968Z,0.98
2024-02-02T03:17:47.887Z,1.20
2024-02-02T03:20:15.686Z,1.58
2024-02-02T03:22:43.597Z,1.65
2024-02-02T03:25:12.753Z,1.50
2024-02-02T03:27:40.498Z,1.30
2024-02-02T03:30:10.814Z,1.88
2024-02-02T03:32:40.415Z,1.30
2024-02-02T03:35:08.883Z,1.50
2024-02-02T03:37:36.627Z,1.55
2024-02-02T03:40:05.288Z,1.67
2024-02-02T03:42:33.117Z,1.52
2024-02-02T03:45:01.028Z,1.27
2024-02-02T03:47:29.112Z,1.23
2024-02-02T03:49:58.262Z,1.10
2024-02-02T03:52:26.143Z,1.50
2024-02-02T03:54:53.875Z,1.70
2024-02-02T03:57:21.680Z,1.58
2024-02-02T03:59:49.533Z,1.92
2024-02-02T04:02:17.493Z,1.13
2024-02-02T04:04:45.443Z,1.45
2024-02-02T04:07:14.648Z,1.60
2024-02-02T04:09:42.423Z,1.38
2024-02-02T04:12:10.240Z,1.52
2024-02-02T04:14:38.000Z,1.20
2024-02-02T04:17:05.771Z,1.25
2024-02-02T04:19:33.645Z,1.48
2024-02-02T04:22:01.435Z,1.65
2024-02-02T04:24:30.721Z,1.40
2024-02-02T04:26:58.587Z,1.77
2024-02-02T04:29:26.374Z,1.35
2024-02-02T04:31:54.124Z,1.13
2024-02-02T04:34:21.983Z,1.55
2024-02-02T04:36:49.849Z,1.13
2024-02-02T04:39:17.623Z,1.40
2024-02-02T04:41:47.849Z,0.82
2024-02-02T04:44:15.666Z,1.33
2024-02-02T04:46:43.410Z,1.40
2024-02-02T04:49:11.249Z,1.05
2024-02-02T04:51:39.059Z,1.20
2024-02-02T04:54:06.821Z,1.13
2024-02-02T04:56:34.592Z,1.40
2024-02-02T04:59:04.336Z,1.70
2024-02-02T05:01:32.096Z,1.73
2024-02-02T05:03:59.887Z,1.63
2024-02-02T05:06:27.727Z,1.85
2024-02-02T05:08:55.554Z,1.67
2024-02-02T05:11:23.354Z,1.25
2024-02-02T05:13:51.102Z,1.83
2024-02-02T05:16:20.205Z,1.60
2024-02-02T05:18:48.096Z,1.50
2024-02-02T05:21:16.070Z,1.02
2024-02-02T05:23:49.328Z,1.58
2024-02-02T05:26:18.073Z,1.45
2024-02-02T05:28:46.019Z,1.52
2024-02-02T05:31:13.767Z,1.00
2024-02-02T05:33:47.168Z,0.93
2024-02-02T05:36:15.606Z,1.38
2024-02-02T05:38:43.379Z,1.80
2024-02-02T05:41:11.123Z,1.33
2024-02-02T05:43:38.824Z,1.33
2024-02-02T05:46:07.078Z,1.45
2024-02-02T05:48:34.988Z,2.22
2024-02-02T05:51:04.238Z,1.75
2024-02-02T05:53:32.052Z,1.65
2024-02-02T05:55:59.817Z,0.88
2024-02-02T05:58:28.730Z,1.40
2024-02-02T06:00:56.555Z,1.20
2024-02-02T06:03:24.779Z,1.42
2024-02-02T06:05:52.686Z,1.20
2024-02-02T06:08:21.873Z,1.30
2024-02-02T06:10:49.656Z,1.35
2024-02-02T06:13:18.363Z,1.30
2024-02-02T06:15:47.282Z,1.35
2024-02-02T06:18:16.448Z,1.33
2024-02-02T06:20:44.325Z,1.45
2024-02-02T06:23:13.517Z,1.40
2024-02-02T06:25:42.645Z,1.20
2024-02-02T06:28:10.892Z,1.30
2024-02-02T06:30:38.720Z,1.23
2024-02-02T06:33:07.256Z,1.58
2024-02-02T06:35:35.053Z,1.35
2024-02-02T06:38:02.773Z,1.38
2024-02-02T06:40:30.765Z,1.00
2024-02-02T06:42:59.872Z,0.90
2024-02-02T06:45:28.572Z,1.20
2024-02-02T06:47:56.618Z,1.38
2024-02-02T06:50:24.449Z,1.40
2024-02-02T06:52:52.255Z,1.17
2024-02-02T06:55:20.167Z,1.52
2024-02-02T06:57:50.132Z,1.55
2024-02-02T07:00:20.415Z,0.90
2024-02-02T07:02:48.506Z,1.58
2024-02-02T07:05:16.678Z,1.60
2024-02-02T07:07:44.441Z,1.25
2024-02-02T07:10:15.603Z,1.20
2024-02-02T07:12:54.923Z,1.55
2024-02-02T07:15:25.030Z,1.08
2024-02-02T07:17:52.982Z,1.58
2024-02-02T07:20:54.020Z,1.55
2024-02-02T07:23:28.578Z,1.20
2024-02-02T07:25:56.361Z,1.13
2024-02-02T07:28:32.196Z,1.35
2024-02-02T07:31:01.458Z,1.60
2024-02-02T07:33:42.144Z,1.65
2024-02-02T07:36:12.096Z,1.45
2024-02-02T07:38:48.213Z,1.45
2024-02-02T07:41:17.365Z,1.05
2024-02-02T07:43:45.478Z,1.00
2024-02-02T07:46:16.142Z,1.40
2024-02-02T07:48:44.938Z,1.30
2024-02-02T07:51:13.423Z,0.82
2024-02-02T07:53:41.321Z,0.88
2024-02-02T07:56:09.680Z,2.10
2024-02-02T07:58:37.638Z,1.30
2024-02-02T08:01:05.678Z,1.02
2024-02-02T08:03:34.935Z,0.90
2024-02-02T08:06:02.828Z,0.90
2024-02-02T08:08:31.836Z,1.17
2024-02-02T08:11:00.865Z,1.50
2024-02-02T08:13:28.800Z,1.27
2024-02-02T08:15:56.939Z,1.27
2024-02-02T08:18:24.769Z,1.52
2024-02-02T08:20:54.076Z,0.70
2024-02-02T08:23:21.874Z,1.10
2024-02-02T08:25:49.620Z,1.13
2024-02-02T08:28:17.380Z,1.33
2024-02-02T08:30:45.165Z,2.13
2024-02-02T08:33:14.544Z,0.70
2024-02-02T08:35:42.633Z,1.42
2024-02-02T08:38:14.045Z,2.08
2024-02-02T08:40:44.217Z,2.28
2024-02-02T08:43:12.766Z,2.03
2024-02-02T08:45:55.353Z,2.50
2024-02-02T08:48:33.467Z,2.50
2024-02-02T08:51:01.987Z,2.15
2024-02-02T08:53:32.177Z,2.28
2024-02-02T08:56:02.039Z,2.15
2024-02-02T08:58:32.628Z,2.58
2024-02-02T09:01:01.399Z,2.58
2024-02-02T09:03:33.112Z,2.45
2024-02-02T09:06:01.718Z,2.70
2024-02-02T09:08:36.045Z,2.60
2024-02-02T09:11:28.057Z,2.80
2024-02-02T09:14:08.325Z,2.58
2024-02-02T09:16:41.538Z,3.03
2024-02-02T09:19:15.981Z,2.33
2024-02-02T09:21:43.784Z,2.55
2024-02-02T09:24:21.797Z,2.72
2024-02-02T09:26:49.593Z,2.47
2024-02-02T09:29:19.688Z,2.78
2024-02-02T09:31:48.056Z,2.80
2024-02-02T09:34:19.014Z,3.05
2024-02-02T09:36:46.880Z,2.38
2024-02-02T09:39:37.392Z,2.50
2024-02-02T09:42:11.469Z,2.50
2024-02-02T09:44:49.014Z,2.42
2024-02-02T09:47:34.754Z,2.38
2024-02-02T09:50:08.683Z,2.42
2024-02-02T09:52:40.746Z,2.47
2024-02-02T09:55:16.507Z,2.20
2024-02-02T09:57:50.857Z,2.65
2024-02-02T10:00:21.239Z,2.50
2024-02-02T10:02:59.539Z,2.33
2024-02-02T10:05:34.231Z,2.45
2024-02-02T10:08:08.800Z,2.83
2024-02-02T10:10:55.783Z,2.38
2024-02-02T10:13:27.854Z,2.60
2024-02-02T10:16:08.732Z,2.65
2024-02-02T10:18:56.994Z,2.67
2024-02-02T10:21:31.721Z,2.10
2024-02-02T10:24:18.077Z,2.47
2024-02-02T10:26:59.466Z,2.80
2024-02-02T10:29:32.053Z,2.38
2024-02-02T10:32:07.114Z,2.92
2024-02-02T10:34:41.512Z,2.20
2024-02-02T10:37:21.696Z,1.42
2024-02-02T10:40:03.376Z,1.13
2024-02-02T10:42:38.864Z,1.35
2024-02-02T10:45:10.908Z,1.63
2024-02-02T10:47:47.474Z,1.98
2024-02-02T10:50:20.365Z,1.38
2024-02-02T10:52:54.429Z,1.30
2024-02-02T10:55:27.684Z,1.63
2024-02-02T10:58:01.869Z,1.27
2024-02-02T11:00:34.160Z,1.67
2024-02-02T11:03:09.449Z,1.55
2024-02-02T11:05:41.756Z,1.50
2024-02-02T11:08:11.010Z,1.55
2024-02-02T11:10:44.300Z,1.70
2024-02-02T11:13:18.505Z,1.40
2024-02-02T11:15:51.756Z,1.30
2024-02-02T11:18:27.083Z,1.95
2024-02-02T11:21:01.725Z,1.30
2024-02-02T11:23:33.000Z,1.77
2024-02-02T11:26:05.444Z,1.15
2024-02-02T11:28:36.413Z,1.63
2024-02-02T11:31:08.283Z,1.45
2024-02-02T11:33:43.865Z,2.00
2024-02-02T11:36:18.921Z,1.45
2024-02-02T11:38:51.110Z,1.75
2024-02-02T11:41:21.060Z,1.73
2024-02-02T11:43:50.857Z,1.50
2024-02-02T11:46:23.520Z,1.52
2024-02-02T11:48:53.131Z,1.77
2024-02-02T11:51:22.310Z,1.40
2024-02-02T11:53:53.914Z,1.58
2024-02-02T11:56:26.632Z,1.90
2024-02-02T11:58:59.409Z,1.60
2024-02-02T12:01:29.835Z,1.60
2024-02-02T12:04:05.601Z,1.95
2024-02-02T12:06:37.346Z,1.67
2024-02-02T12:09:13.347Z,1.48
2024-02-02T12:11:44.648Z,1.73
2024-02-02T12:14:17.589Z,1.77
2024-02-02T12:16:45.411Z,1.83
2024-02-02T12:19:13.266Z,1.85
2024-02-02T12:21:41.255Z,2.20
2024-02-02T12:24:09.305Z,1.70
2024-02-02T12:26:37.135Z,1.30
2024-02-02T12:29:04.918Z,2.47
2024-02-02T12:31:34.129Z,2.65
2024-02-02T12:34:02.190Z,1.67
2024-02-02T12:36:30.170Z,2.13
2024-02-02T12:38:59.756Z,1.60
2024-02-02T12:41:27.510Z,1.50
2024-02-02T12:43:55.270Z,1.95
2024-02-02T12:46:23.072Z,2.60
2024-02-02T12:48:52.351Z,1.88
2024-02-02T12:51:22.347Z,2.17
2024-02-02T12:53:50.368Z,2.25
2024-02-02T12:56:19.006Z,2.15
2024-02-02T12:58:47.927Z,2.33
2024-02-02T13:01:16.760Z,2.00
2024-02-02T13:03:45.206Z,1.55
2024-02-02T13:06:15.474Z,3.05
2024-02-02T13:08:43.309Z,1.80
2024-02-02T13:11:20.378Z,2.53
2024-02-02T13:13:48.628Z,1.98
2024-02-02T13:16:29.173Z,1.80
2024-02-02T13:18:57.022Z,1.95
2024-02-02T13:21:28.269Z,2.58
2024-02-02T13:23:56.912Z,2.63
2024-02-02T13:26:36.901Z,2.20
2024-02-02T13:29:08.551Z,2.35
2024-02-02T13:31:38.237Z,2.40
2024-02-02T13:34:06.775Z,2.03
2024-02-02T13:36:40.635Z,2.65
2024-02-02T13:39:08.517Z,2.05
2024-02-02T13:41:37.398Z,1.98
2024-02-02T13:44:06.304Z,2.13
2024-02-02T13:46:34.065Z,2.10
2024-02-02T13:49:06.821Z,2.15
2024-02-02T13:51:38.411Z,1.90
2024-02-02T13:54:09.637Z,2.40
2024-02-02T13:56:37.496Z,1.88
2024-02-02T13:59:05.303Z,2.25
2024-02-02T14:01:33.121Z,2.25
2024-02-02T14:04:01.002Z,2.92
2024-02-02T14:06:30.997Z,2.80
2024-02-02T14:09:00.240Z,2.50
2024-02-02T14:11:28.473Z,2.92
2024-02-02T14:13:56.908Z,2.30
2024-02-02T14:16:25.029Z,2.60
2024-02-02T14:19:02.579Z,2.40
2024-02-02T14:21:32.010Z,3.05
2024-02-02T14:24:08.914Z,2.17
2024-02-02T14:26:36.731Z,2.33
2024-02-02T14:29:04.757Z,2.50
2024-02-02T14:31:32.780Z,2.63
2024-02-02T14:34:00.713Z,2.20
2024-02-02T14:36:28.559Z,1.85
2024-02-02T14:38:56.865Z,2.67
2024-02-02T14:41:26.219Z,1.88
2024-02-02T14:43:53.937Z,2.28
2024-02-02T14:46:22.533Z,2.38
2024-02-02T14:48:51.388Z,2.17
2024-02-02T14:51:19.267Z,2.38
2024-02-02T14:53:47.342Z,2.25
2024-02-02T14:56:15.482Z,2.45
2024-02-02T14:58:46.565Z,2.10
2024-02-02T15:01:15.365Z,2.45
2024-02-02T15:03:43.159Z,1.95
2024-02-02T15:08:40.140Z,2.30
2024-02-02T15:11:09.983Z,2.40
2024-02-02T15:13:38.188Z,2.67
2024-02-02T15:16:10.546Z,2.45
2024-02-02T15:18:38.491Z,2.50
2024-02-02T15:21:07.180Z,2.10
2024-02-02T15:23:34.939Z,2.38
2024-02-02T15:26:02.682Z,2.15
2024-02-02T15:28:30.402Z,1.88
2024-02-02T15:30:58.151Z,1.98
2024-02-02T15:33:27.538Z,2.42
2024-02-02T15:35:55.409Z,2.17
2024-02-02T15:38:23.157Z,2.03
2024-02-02T15:40:50.922Z,1.85
2024-02-02T15:43:18.731Z,2.17
2024-02-02T15:45:46.512Z,1.70
2024-02-02T15:48:15.928Z,1.90
2024-02-02T15:50:47.251Z,2.13
2024-02-02T15:53:15.443Z,2.08
2024-02-02T15:55:43.533Z,2.10
2024-02-02T15:58:11.389Z,2.60
2024-02-02T16:00:39.317Z,2.35
2024-02-02T16:03:08.062Z,2.60
2024-02-02T16:05:36.123Z,2.10
2024-02-02T16:08:05.396Z,1.75
2024-02-02T16:10:33.887Z,1.90
2024-02-02T16:13:02.391Z,2.20
2024-02-02T16:15:30.210Z,2.10
2024-02-02T16:17:58.284Z,2.20
2024-02-02T16:20:26.059Z,2.25
2024-02-02T16:22:53.774Z,1.77
2024-02-02T16:25:23.801Z,2.53
2024-02-02T16:27:51.623Z,1.73
2024-02-02T16:30:19.587Z,1.95
2024-02-02T16:32:47.459Z,2.20
2024-02-02T16:35:15.368Z,2.00
2024-02-02T16:37:43.159Z,1.70
2024-02-02T16:40:11.489Z,1.90
2024-02-02T16:42:41.674Z,2.20
2024-02-02T16:45:10.178Z,2.33
2024-02-02T16:47:38.325Z,2.13
2024-02-02T16:50:06.685Z,1.55
2024-02-02T16:52:34.432Z,2.00
2024-02-02T16:55:02.161Z,2.60
2024-02-02T16:57:30.538Z,2.22
2024-02-02T16:59:59.894Z,1.88
2024-02-02T17:02:27.704Z,2.10
2024-02-02T17:04:55.438Z,1.92
2024-02-02T17:07:25.673Z,1.98
2024-02-02T17:09:53.704Z,2.05
2024-02-02T17:12:21.858Z,2.00
2024-02-02T17:14:49.794Z,2.10
2024-02-02T17:17:18.905Z,1.77
2024-02-02T17:19:46.748Z,2.22
2024-02-02T17:22:14.566Z,1.98
2024-02-02T17:24:42.404Z,2.72
2024-02-02T17:27:10.218Z,2.47
2024-02-02T17:29:41.239Z,2.85
2024-02-02T17:32:08.971Z,2.08
2024-02-02T17:34:38.488Z,2.38
2024-02-02T17:37:06.591Z,2.20
2024-02-02T17:39:34.362Z,2.30
2024-02-02T17:42:02.101Z,2.13
2024-02-02T17:44:30.473Z,2.42
2024-02-02T17:46:58.219Z,2.33
2024-02-02T17:49:29.898Z,1.95
2024-02-02T17:52:01.464Z,1.98
2024-02-02T17:54:29.272Z,2.20
2024-02-02T17:56:57.933Z,1.70
2024-02-02T17:59:25.662Z,1.80
2024-02-02T18:01:53.435Z,2.17
2024-02-02T18:04:21.228Z,1.90
2024-02-02T18:06:49.112Z,1.60
2024-02-02T18:09:18.447Z,1.60
2024-02-02T18:11:46.224Z,1.80
2024-02-02T18:14:15.896Z,1.60
2024-02-02T18:16:43.658Z,1.70
2024-02-02T18:19:11.432Z,1.58
2024-02-02T18:21:39.237Z,1.65
2024-02-02T18:24:07.235Z,1.58
2024-02-02T18:26:37.929Z,1.33
2024-02-02T18:29:05.709Z,1.38
2024-02-02T18:31:33.597Z,1.35
2024-02-02T18:34:01.582Z,1.27
2024-02-02T18:36:29.429Z,1.23
2024-02-02T18:38:57.231Z,1.20
2024-02-02T18:41:28.318Z,1.52
2024-02-02T18:43:57.645Z,1.20
2024-02-02T18:46:26.096Z,1.17
2024-02-02T18:48:53.901Z,1.50
2024-02-02T18:51:21.996Z,0.95
2024-02-02T18:53:49.956Z,1.00
2024-02-02T18:56:17.728Z,1.25
2024-02-02T18:58:46.809Z,1.20
2024-02-02T19:01:25.066Z,1.17
2024-02-02T19:03:53.258Z,1.00
2024-02-02T19:06:21.262Z,1.10
2024-02-02T19:08:49.153Z,1.10
2024-02-02T19:11:18.663Z,1.02
2024-02-02T19:13:46.472Z,1.13
2024-02-02T19:16:18.261Z,0.95
2024-02-02T19:18:47.451Z,1.40
2024-02-02T19:21:18.934Z,1.02
2024-02-02T19:23:46.781Z,0.80
2024-02-02T19:26:14.554Z,1.13
2024-02-02T19:28:42.346Z,0.90
2024-02-02T19:31:10.216Z,0.90
2024-02-02T19:33:38.068Z,0.63
2024-02-02T19:36:07.530Z,1.02
2024-02-02T19:38:35.538Z,1.10
2024-02-02T19:41:03.264Z,1.23
2024-02-02T19:43:31.005Z,1.20
2024-02-02T19:45:58.748Z,1.00
2024-02-02T19:48:26.591Z,1.20
2024-02-02T19:50:54.391Z,1.10
2024-02-02T19:53:23.490Z,1.23
2024-02-02T19:55:51.245Z,0.85
2024-02-02T19:58:18.972Z,0.77
2024-02-02T20:00:46.817Z,0.90
2024-02-02T20:03:14.931Z,0.70
2024-02-02T20:05:42.705Z,1.00
2024-02-02T20:08:10.407Z,0.85
2024-02-02T20:10:40.787Z,0.93
2024-02-02T20:13:09.634Z,0.93
2024-02-02T20:15:37.511Z,1.20
2024-02-02T20:18:05.465Z,0.80
2024-02-02T20:20:33.890Z,0.95
2024-02-02T20:23:01.781Z,0.90
2024-02-02T20:25:29.536Z,1.02
2024-02-02T20:28:00.083Z,1.25
2024-02-02T20:30:28.069Z,1.23
2024-02-02T20:32:55.844Z,1.30
2024-02-02T20:35:23.685Z,1.23
2024-02-02T20:37:52.447Z,0.82
2024-02-02T20:40:21.201Z,1.00
2024-02-02T20:42:49.001Z,1.30
2024-02-02T20:45:19.109Z,0.70
2024-02-02T20:47:46.888Z,1.13
2024-02-02T20:50:14.714Z,0.82
2024-02-02T20:52:42.460Z,1.20
2024-02-02T20:55:14.399Z,1.20
2024-02-02T20:57:42.369Z,0.93
2024-02-02T21:00:12.523Z,1.23
2024-02-02T21:02:42.869Z,1.15
2024-02-02T21:05:11.917Z,0.95
2024-02-02T21:07:40.314Z,1.10
2024-02-02T21:10:08.628Z,0.98
2024-02-02T21:12:36.772Z,1.10
2024-02-02T21:15:05.094Z,1.10
2024-02-02T21:17:33.291Z,1.02
2024-02-02T21:20:02.587Z,1.27
2024-02-02T21:22:34.348Z,1.00
2024-02-02T21:25:02.128Z,1.20
2024-02-02T21:27:29.913Z,0.93
2024-02-02T21:29:57.673Z,1.00
2024-02-02T21:32:25.427Z,1.10
2024-02-02T21:34:53.400Z,1.17
2024-02-02T21:37:22.534Z,1.00
2024-02-02T21:39:50.460Z,0.90
2024-02-02T21:42:18.213Z,1.20
2024-02-02T21:44:45.983Z,1.00
2024-02-02T21:47:13.708Z,0.90
2024-02-02T21:49:44.087Z,0.77
2024-02-02T21:52:12.303Z,0.90
2024-02-02T21:54:41.473Z,0.68
2024-02-02T21:57:09.605Z,0.40
2024-02-02T21:59:38.730Z,0.75
2024-02-02T22:02:06.941Z,0.73
2024-02-02T22:04:34.768Z,0.75
2024-02-02T22:07:04.928Z,1.02
2024-02-02T22:09:32.866Z,1.02
2024-02-02T22:12:02.000Z,0.90
2024-02-02T22:14:33.762Z,0.77
2024-02-02T22:17:01.544Z,1.08
2024-02-02T22:19:29.398Z,1.08
2024-02-02T22:21:58.166Z,0.70
2024-02-02T22:24:27.916Z,1.00
2024-02-02T22:26:55.683Z,1.27
2024-02-02T22:29:24.818Z,1.02
2024-02-02T22:31:52.642Z,0.80
2024-02-02T22:34:20.412Z,1.08
2024-02-02T22:36:48.278Z,1.02
2024-02-02T22:39:16.546Z,0.93
2024-02-02T22:41:44.305Z,0.85
2024-02-02T22:44:12.166Z,0.80
2024-02-02T22:46:41.294Z,0.88
2024-02-02T22:49:09.536Z,0.80
2024-02-02T22:51:44.451Z,1.02
2024-02-02T22:54:12.281Z,0.88
2024-02-02T22:56:40.097Z,1.08
2024-02-02T22:59:07.861Z,0.52
2024-02-02T23:01:35.735Z,0.85
2024-02-02T23:04:05.313Z,0.93
2024-02-02T23:06:33.382Z,0.90
2024-02-02T23:09:01.225Z,0.98
2024-02-02T23:11:28.994Z,1.10
2024-02-02T23:13:56.724Z,1.15
2024-02-02T23:16:24.531Z,1.05
2024-02-02T23:18:52.793Z,0.95
2024-02-02T23:21:22.031Z,0.70
2024-02-02T23:23:50.040Z,1.13
2024-02-02T23:26:17.767Z,1.23
2024-02-02T23:28:45.505Z,1.08
2024-02-02T23:31:13.397Z,0.80
2024-02-02T23:33:42.206Z,1.10
2024-02-02T23:36:10.220Z,0.88
2024-02-02T23:38:40.527Z,1.30
2024-02-02T23:41:08.256Z,1.23
2024-02-02T23:43:36.000Z,1.10
2024-02-02T23:46:03.997Z,1.00
2024-02-02T23:48:31.866Z,1.15
2024-02-02T23:50:59.668Z,0.90
2024-02-02T23:53:27.419Z,1.00
2024-02-02T23:55:56.500Z,0.80
2024-02-02T23:58:24.247Z,0.60
